sensor_id;sensor_type;location;lat;lon;timestamp;P1;durP1;ratioP1;P2;durP2;ratioP2
33824;SDS011;20127;48.962;8.342;2023-08-06T00:02:14;5.00;;;4.45;;
33824;SDS011;20127;48.962;8.342;2023-08-06T00:05:17;5.03;;;4.35;;
33824;SDS011;20127;48.962;8.342;2023-08-06T00:08:21;10.15;;;4.63;;
33824;SDS011;20127;48.962;8.342;2023-08-06T00:11:22;4.47;;;3.92;;
33824;SDS011;20127;48.962;8.342;2023-08-06T00:14:25;7.50;;;3.88;;
33824;SDS011;20127;48.962;8.342;2023-08-06T00:17:27;6.30;;;4.90;;
33824;SDS011;20127;48.962;8.342;2023-08-06T00:20:30;6.53;;;3.80;;
33824;SDS011;20127;48.962;8.342;2023-08-06T00:23:33;6.55;;;3.70;;
33824;SDS011;20127;48.962;8.342;2023-08-06T00:26:46;6.40;;;3.22;;
33824;SDS011;20127;48.962;8.342;2023-08-06T00:29:59;5.00;;;3.67;;
33824;SDS011;20127;48.962;8.342;2023-08-06T00:33:07;6.13;;;3.30;;
33824;SDS011;20127;48.962;8.342;2023-08-06T00:36:10;3.38;;;3.08;;
33824;SDS011;20127;48.962;8.342;2023-08-06T00:39:12;3.67;;;3.28;;
33824;SDS011;20127;48.962;8.342;2023-08-06T00:42:14;6.47;;;2.92;;
33824;SDS011;20127;48.962;8.342;2023-08-06T00:45:28;6.15;;;4.03;;
33824;SDS011;20127;48.962;8.342;2023-08-06T00:48:31;4.50;;;4.10;;
33824;SDS011;20127;48.962;8.342;2023-08-06T00:51:40;4.10;;;3.28;;
33824;SDS011;20127;48.962;8.342;2023-08-06T00:55:23;3.88;;;3.47;;
33824;SDS011;20127;48.962;8.342;2023-08-06T01:02:44;6.22;;;3.85;;
33824;SDS011;20127;48.962;8.342;2023-08-06T01:06:55;5.35;;;3.33;;
33824;SDS011;20127;48.962;8.342;2023-08-06T01:10:26;13.45;;;3.78;;
33824;SDS011;20127;48.962;8.342;2023-08-06T01:18:20;8.88;;;3.30;;
33824;SDS011;20127;48.962;8.342;2023-08-06T01:21:35;2.38;;;2.17;;
33824;SDS011;20127;48.962;8.342;2023-08-06T01:24:37;27.27;;;6.78;;
33824;SDS011;20127;48.962;8.342;2023-08-06T01:27:42;3.47;;;2.60;;
33824;SDS011;20127;48.962;8.342;2023-08-06T01:30:47;4.75;;;4.13;;
33824;SDS011;20127;48.962;8.342;2023-08-06T01:33:51;4.40;;;2.95;;
33824;SDS011;20127;48.962;8.342;2023-08-06T01:36:56;2.83;;;2.50;;
33824;SDS011;20127;48.962;8.342;2023-08-06T01:39:58;2.38;;;2.20;;
33824;SDS011;20127;48.962;8.342;2023-08-06T01:43:00;4.45;;;2.70;;
33824;SDS011;20127;48.962;8.342;2023-08-06T01:46:02;12.25;;;3.25;;
33824;SDS011;20127;48.962;8.342;2023-08-06T01:49:04;4.53;;;2.72;;
33824;SDS011;20127;48.962;8.342;2023-08-06T01:52:07;6.38;;;2.90;;
33824;SDS011;20127;48.962;8.342;2023-08-06T01:55:09;2.88;;;2.55;;
33824;SDS011;20127;48.962;8.342;2023-08-06T01:58:10;5.78;;;3.28;;
33824;SDS011;20127;48.962;8.342;2023-08-06T02:01:12;3.28;;;2.80;;
33824;SDS011;20127;48.962;8.342;2023-08-06T02:04:14;6.10;;;2.70;;
33824;SDS011;20127;48.962;8.342;2023-08-06T02:07:17;5.22;;;2.95;;
33824;SDS011;20127;48.962;8.342;2023-08-06T02:10:18;6.03;;;2.42;;
33824;SDS011;20127;48.962;8.342;2023-08-06T02:13:20;5.25;;;2.67;;
33824;SDS011;20127;48.962;8.342;2023-08-06T02:16:22;3.72;;;3.42;;
33824;SDS011;20127;48.962;8.342;2023-08-06T02:19:24;10.38;;;3.33;;
33824;SDS011;20127;48.962;8.342;2023-08-06T02:22:27;4.55;;;3.00;;
33824;SDS011;20127;48.962;8.342;2023-08-06T02:25:28;7.57;;;3.42;;
33824;SDS011;20127;48.962;8.342;2023-08-06T02:28:30;4.03;;;3.63;;
33824;SDS011;20127;48.962;8.342;2023-08-06T02:31:32;10.70;;;3.53;;
33824;SDS011;20127;48.962;8.342;2023-08-06T02:34:34;6.60;;;2.90;;
33824;SDS011;20127;48.962;8.342;2023-08-06T02:37:37;5.28;;;3.70;;
33824;SDS011;20127;48.962;8.342;2023-08-06T02:40:42;5.45;;;2.85;;
33824;SDS011;20127;48.962;8.342;2023-08-06T02:43:45;8.95;;;3.03;;
33824;SDS011;20127;48.962;8.342;2023-08-06T02:46:49;4.60;;;3.38;;
33824;SDS011;20127;48.962;8.342;2023-08-06T02:49:51;5.78;;;2.97;;
33824;SDS011;20127;48.962;8.342;2023-08-06T02:52:54;2.63;;;2.40;;
33824;SDS011;20127;48.962;8.342;2023-08-06T02:55:56;7.22;;;3.45;;
33824;SDS011;20127;48.962;8.342;2023-08-06T02:58:58;9.77;;;3.95;;
33824;SDS011;20127;48.962;8.342;2023-08-06T03:02:01;4.22;;;2.30;;
33824;SDS011;20127;48.962;8.342;2023-08-06T03:05:03;8.35;;;3.10;;
33824;SDS011;20127;48.962;8.342;2023-08-06T03:08:07;7.43;;;4.03;;
33824;SDS011;20127;48.962;8.342;2023-08-06T03:11:09;4.03;;;2.92;;
33824;SDS011;20127;48.962;8.342;2023-08-06T03:14:11;5.20;;;3.30;;
33824;SDS011;20127;48.962;8.342;2023-08-06T03:17:21;4.22;;;2.85;;
33824;SDS011;20127;48.962;8.342;2023-08-06T03:20:23;4.78;;;2.97;;
33824;SDS011;20127;48.962;8.342;2023-08-06T03:23:27;9.90;;;2.53;;
33824;SDS011;20127;48.962;8.342;2023-08-06T03:26:29;5.70;;;2.67;;
33824;SDS011;20127;48.962;8.342;2023-08-06T03:29:31;3.85;;;2.70;;
33824;SDS011;20127;48.962;8.342;2023-08-06T03:32:32;9.50;;;2.85;;
33824;SDS011;20127;48.962;8.342;2023-08-06T03:35:34;6.93;;;2.88;;
33824;SDS011;20127;48.962;8.342;2023-08-06T03:38:37;6.50;;;2.67;;
33824;SDS011;20127;48.962;8.342;2023-08-06T03:41:39;9.88;;;2.80;;
33824;SDS011;20127;48.962;8.342;2023-08-06T03:44:40;13.57;;;4.07;;
33824;SDS011;20127;48.962;8.342;2023-08-06T03:47:42;5.82;;;2.00;;
33824;SDS011;20127;48.962;8.342;2023-08-06T03:50:44;4.35;;;2.92;;
33824;SDS011;20127;48.962;8.342;2023-08-06T03:53:47;4.18;;;1.52;;
33824;SDS011;20127;48.962;8.342;2023-08-06T03:56:48;5.40;;;2.03;;
33824;SDS011;20127;48.962;8.342;2023-08-06T03:59:50;4.95;;;1.75;;
33824;SDS011;20127;48.962;8.342;2023-08-06T04:02:52;2.72;;;1.50;;
33824;SDS011;20127;48.962;8.342;2023-08-06T04:05:54;4.30;;;1.63;;
33824;SDS011;20127;48.962;8.342;2023-08-06T04:08:57;3.17;;;1.23;;
33824;SDS011;20127;48.962;8.342;2023-08-06T04:11:59;3.25;;;1.88;;
33824;SDS011;20127;48.962;8.342;2023-08-06T04:15:01;8.52;;;1.15;;
33824;SDS011;20127;48.962;8.342;2023-08-06T04:18:04;3.35;;;1.40;;
33824;SDS011;20127;48.962;8.342;2023-08-06T04:21:05;3.17;;;1.67;;
33824;SDS011;20127;48.962;8.342;2023-08-06T04:24:08;6.72;;;1.50;;
33824;SDS011;20127;48.962;8.342;2023-08-06T04:27:10;2.17;;;1.30;;
33824;SDS011;20127;48.962;8.342;2023-08-06T04:30:12;3.03;;;1.50;;
33824;SDS011;20127;48.962;8.342;2023-08-06T04:33:14;9.75;;;1.83;;
33824;SDS011;20127;48.962;8.342;2023-08-06T04:36:16;4.68;;;1.75;;
33824;SDS011;20127;48.962;8.342;2023-08-06T04:39:19;3.70;;;1.38;;
33824;SDS011;20127;48.962;8.342;2023-08-06T04:42:20;2.92;;;1.00;;
33824;SDS011;20127;48.962;8.342;2023-08-06T04:45:22;6.82;;;1.73;;
33824;SDS011;20127;48.962;8.342;2023-08-06T04:48:24;7.82;;;4.38;;
33824;SDS011;20127;48.962;8.342;2023-08-06T04:51:26;5.30;;;2.00;;
33824;SDS011;20127;48.962;8.342;2023-08-06T04:54:29;7.88;;;1.63;;
33824;SDS011;20127;48.962;8.342;2023-08-06T04:57:30;5.05;;;1.70;;
33824;SDS011;20127;48.962;8.342;2023-08-06T05:00:32;2.65;;;1.45;;
33824;SDS011;20127;48.962;8.342;2023-08-06T05:03:34;8.18;;;1.83;;
33824;SDS011;20127;48.962;8.342;2023-08-06T05:06:36;3.50;;;2.13;;
33824;SDS011;20127;48.962;8.342;2023-08-06T05:09:40;6.70;;;3.53;;
33824;SDS011;20127;48.962;8.342;2023-08-06T05:12:42;3.15;;;1.80;;
33824;SDS011;20127;48.962;8.342;2023-08-06T05:15:43;5.18;;;2.10;;
33824;SDS011;20127;48.962;8.342;2023-08-06T05:18:46;6.30;;;1.85;;
33824;SDS011;20127;48.962;8.342;2023-08-06T05:21:48;2.15;;;1.48;;
33824;SDS011;20127;48.962;8.342;2023-08-06T05:24:51;5.15;;;1.88;;
33824;SDS011;20127;48.962;8.342;2023-08-06T05:27:52;3.15;;;1.42;;
33824;SDS011;20127;48.962;8.342;2023-08-06T05:30:54;4.05;;;1.63;;
33824;SDS011;20127;48.962;8.342;2023-08-06T05:33:56;7.72;;;1.73;;
33824;SDS011;20127;48.962;8.342;2023-08-06T05:36:57;4.35;;;1.52;;
33824;SDS011;20127;48.962;8.342;2023-08-06T05:40:00;6.50;;;1.80;;
33824;SDS011;20127;48.962;8.342;2023-08-06T05:43:04;4.60;;;1.70;;
33824;SDS011;20127;48.962;8.342;2023-08-06T05:46:05;3.47;;;1.38;;
33824;SDS011;20127;48.962;8.342;2023-08-06T05:49:07;4.00;;;1.50;;
33824;SDS011;20127;48.962;8.342;2023-08-06T05:52:08;4.30;;;1.58;;
33824;SDS011;20127;48.962;8.342;2023-08-06T05:55:11;3.28;;;1.33;;
33824;SDS011;20127;48.962;8.342;2023-08-06T05:58:13;6.35;;;1.77;;
33824;SDS011;20127;48.962;8.342;2023-08-06T06:01:15;2.67;;;1.50;;
33824;SDS011;20127;48.962;8.342;2023-08-06T06:04:16;4.43;;;1.30;;
33824;SDS011;20127;48.962;8.342;2023-08-06T06:07:18;1.10;;;0.73;;
33824;SDS011;20127;48.962;8.342;2023-08-06T06:10:21;3.55;;;0.98;;
33824;SDS011;20127;48.962;8.342;2023-08-06T06:13:23;0.82;;;0.70;;
33824;SDS011;20127;48.962;8.342;2023-08-06T06:16:24;1.23;;;0.77;;
33824;SDS011;20127;48.962;8.342;2023-08-06T06:19:26;2.45;;;0.93;;
33824;SDS011;20127;48.962;8.342;2023-08-06T06:22:28;1.73;;;0.70;;
33824;SDS011;20127;48.962;8.342;2023-08-06T06:25:31;2.83;;;0.73;;
33824;SDS011;20127;48.962;8.342;2023-08-06T06:28:33;1.60;;;0.90;;
33824;SDS011;20127;48.962;8.342;2023-08-06T06:31:34;2.53;;;0.47;;
33824;SDS011;20127;48.962;8.342;2023-08-06T06:34:36;1.40;;;0.68;;
33824;SDS011;20127;48.962;8.342;2023-08-06T06:37:38;0.73;;;0.73;;
33824;SDS011;20127;48.962;8.342;2023-08-06T06:40:41;0.82;;;0.60;;
33824;SDS011;20127;48.962;8.342;2023-08-06T06:43:42;1.25;;;1.05;;
33824;SDS011;20127;48.962;8.342;2023-08-06T06:46:50;0.82;;;0.55;;
33824;SDS011;20127;48.962;8.342;2023-08-06T06:50:02;3.90;;;0.60;;
33824;SDS011;20127;48.962;8.342;2023-08-06T06:53:08;3.15;;;0.98;;
33824;SDS011;20127;48.962;8.342;2023-08-06T06:56:11;2.78;;;0.77;;
33824;SDS011;20127;48.962;8.342;2023-08-06T06:59:12;1.38;;;0.85;;
33824;SDS011;20127;48.962;8.342;2023-08-06T07:02:14;5.00;;;1.00;;
33824;SDS011;20127;48.962;8.342;2023-08-06T07:05:16;1.48;;;0.73;;
33824;SDS011;20127;48.962;8.342;2023-08-06T07:08:17;3.63;;;0.90;;
33824;SDS011;20127;48.962;8.342;2023-08-06T07:11:21;1.02;;;0.70;;
33824;SDS011;20127;48.962;8.342;2023-08-06T07:14:24;1.02;;;0.80;;
33824;SDS011;20127;48.962;8.342;2023-08-06T07:17:26;1.55;;;0.70;;
33824;SDS011;20127;48.962;8.342;2023-08-06T07:20:28;2.58;;;0.90;;
33824;SDS011;20127;48.962;8.342;2023-08-06T07:23:31;1.58;;;1.00;;
33824;SDS011;20127;48.962;8.342;2023-08-06T07:26:34;3.53;;;1.70;;
33824;SDS011;20127;48.962;8.342;2023-08-06T07:29:36;1.85;;;0.52;;
33824;SDS011;20127;48.962;8.342;2023-08-06T07:32:38;1.92;;;1.05;;
33824;SDS011;20127;48.962;8.342;2023-08-06T07:36:07;3.58;;;0.90;;
33824;SDS011;20127;48.962;8.342;2023-08-06T07:39:13;1.83;;;1.15;;
33824;SDS011;20127;48.962;8.342;2023-08-06T07:42:23;5.63;;;1.00;;
33824;SDS011;20127;48.962;8.342;2023-08-06T07:45:32;2.42;;;1.17;;
33824;SDS011;20127;48.962;8.342;2023-08-06T07:48:36;3.55;;;1.65;;
33824;SDS011;20127;48.962;8.342;2023-08-06T07:51:44;3.00;;;1.10;;
33824;SDS011;20127;48.962;8.342;2023-08-06T07:54:49;3.40;;;1.42;;
33824;SDS011;20127;48.962;8.342;2023-08-06T07:57:53;5.60;;;0.95;;
33824;SDS011;20127;48.962;8.342;2023-08-06T08:00:55;0.82;;;0.80;;
33824;SDS011;20127;48.962;8.342;2023-08-06T08:03:56;2.05;;;0.65;;
33824;SDS011;20127;48.962;8.342;2023-08-06T08:06:58;2.15;;;1.02;;
33824;SDS011;20127;48.962;8.342;2023-08-06T08:10:00;1.23;;;0.93;;
33824;SDS011;20127;48.962;8.342;2023-08-06T08:13:06;1.15;;;0.70;;
33824;SDS011;20127;48.962;8.342;2023-08-06T08:16:08;1.05;;;0.95;;
33824;SDS011;20127;48.962;8.342;2023-08-06T08:19:10;3.13;;;1.45;;
33824;SDS011;20127;48.962;8.342;2023-08-06T08:22:12;2.65;;;1.70;;
33824;SDS011;20127;48.962;8.342;2023-08-06T08:25:14;1.60;;;1.42;;
33824;SDS011;20127;48.962;8.342;2023-08-06T08:28:18;1.17;;;0.98;;
33824;SDS011;20127;48.962;8.342;2023-08-06T08:31:20;1.45;;;1.02;;
33824;SDS011;20127;48.962;8.342;2023-08-06T08:34:21;1.77;;;1.10;;
33824;SDS011;20127;48.962;8.342;2023-08-06T08:37:25;3.35;;;1.35;;
33824;SDS011;20127;48.962;8.342;2023-08-06T08:40:31;5.13;;;1.73;;
33824;SDS011;20127;48.962;8.342;2023-08-06T08:43:36;2.58;;;2.33;;
33824;SDS011;20127;48.962;8.342;2023-08-06T08:50:26;2.28;;;0.85;;
33824;SDS011;20127;48.962;8.342;2023-08-06T08:53:28;0.93;;;0.70;;
33824;SDS011;20127;48.962;8.342;2023-08-06T08:56:33;1.38;;;1.00;;
33824;SDS011;20127;48.962;8.342;2023-08-06T08:59:36;3.28;;;1.00;;
33824;SDS011;20127;48.962;8.342;2023-08-06T09:02:38;2.25;;;1.00;;
33824;SDS011;20127;48.962;8.342;2023-08-06T09:05:43;3.80;;;0.88;;
33824;SDS011;20127;48.962;8.342;2023-08-06T09:08:47;1.85;;;1.13;;
33824;SDS011;20127;48.962;8.342;2023-08-06T09:11:55;1.42;;;0.80;;
33824;SDS011;20127;48.962;8.342;2023-08-06T09:15:02;2.22;;;0.77;;
33824;SDS011;20127;48.962;8.342;2023-08-06T09:18:08;4.22;;;1.05;;
33824;SDS011;20127;48.962;8.342;2023-08-06T09:21:13;4.15;;;1.42;;
33824;SDS011;20127;48.962;8.342;2023-08-06T09:24:16;9.45;;;6.65;;
33824;SDS011;20127;48.962;8.342;2023-08-06T09:27:18;31.60;;;16.92;;
33824;SDS011;20127;48.962;8.342;2023-08-06T09:30:29;24.08;;;15.57;;
33824;SDS011;20127;48.962;8.342;2023-08-06T09:33:32;46.30;;;36.72;;
33824;SDS011;20127;48.962;8.342;2023-08-06T09:36:34;9.27;;;6.60;;
33824;SDS011;20127;48.962;8.342;2023-08-06T09:39:35;6.05;;;1.98;;
33824;SDS011;20127;48.962;8.342;2023-08-06T09:42:42;5.05;;;3.85;;
33824;SDS011;20127;48.962;8.342;2023-08-06T09:45:46;7.03;;;6.53;;
33824;SDS011;20127;48.962;8.342;2023-08-06T09:48:48;1.50;;;1.08;;
33824;SDS011;20127;48.962;8.342;2023-08-06T09:51:51;4.63;;;4.38;;
33824;SDS011;20127;48.962;8.342;2023-08-06T09:54:55;0.90;;;0.90;;
33824;SDS011;20127;48.962;8.342;2023-08-06T09:57:58;2.35;;;2.25;;
33824;SDS011;20127;48.962;8.342;2023-08-06T10:01:01;0.40;;;0.40;;
33824;SDS011;20127;48.962;8.342;2023-08-06T10:04:05;1.85;;;0.85;;
33824;SDS011;20127;48.962;8.342;2023-08-06T10:07:08;2.08;;;1.35;;
33824;SDS011;20127;48.962;8.342;2023-08-06T10:10:10;2.10;;;0.82;;
33824;SDS011;20127;48.962;8.342;2023-08-06T10:13:12;3.13;;;1.30;;
33824;SDS011;20127;48.962;8.342;2023-08-06T10:16:16;2.20;;;0.68;;
33824;SDS011;20127;48.962;8.342;2023-08-06T10:19:18;0.82;;;0.82;;
33824;SDS011;20127;48.962;8.342;2023-08-06T10:22:20;0.85;;;0.85;;
33824;SDS011;20127;48.962;8.342;2023-08-06T10:25:23;1.50;;;1.15;;
33824;SDS011;20127;48.962;8.342;2023-08-06T10:28:30;4.13;;;2.63;;
33824;SDS011;20127;48.962;8.342;2023-08-06T10:31:55;4.22;;;1.75;;
33824;SDS011;20127;48.962;8.342;2023-08-06T10:35:00;1.48;;;1.38;;
33824;SDS011;20127;48.962;8.342;2023-08-06T10:38:03;4.18;;;1.38;;
33824;SDS011;20127;48.962;8.342;2023-08-06T10:41:08;3.63;;;1.42;;
33824;SDS011;20127;48.962;8.342;2023-08-06T10:44:17;1.63;;;1.20;;
33824;SDS011;20127;48.962;8.342;2023-08-06T10:47:27;2.28;;;1.92;;
33824;SDS011;20127;48.962;8.342;2023-08-06T10:50:29;1.38;;;1.15;;
33824;SDS011;20127;48.962;8.342;2023-08-06T10:53:31;5.00;;;1.42;;
33824;SDS011;20127;48.962;8.342;2023-08-06T10:56:39;5.57;;;2.80;;
33824;SDS011;20127;48.962;8.342;2023-08-06T10:59:41;2.25;;;1.55;;
33824;SDS011;20127;48.962;8.342;2023-08-06T11:02:44;4.25;;;2.10;;
33824;SDS011;20127;48.962;8.342;2023-08-06T11:05:48;2.03;;;1.42;;
33824;SDS011;20127;48.962;8.342;2023-08-06T11:08:51;2.65;;;2.45;;
33824;SDS011;20127;48.962;8.342;2023-08-06T11:11:54;4.40;;;2.88;;
33824;SDS011;20127;48.962;8.342;2023-08-06T11:14:55;4.38;;;2.67;;
33824;SDS011;20127;48.962;8.342;2023-08-06T11:17:59;4.35;;;2.83;;
33824;SDS011;20127;48.962;8.342;2023-08-06T11:21:02;4.38;;;1.98;;
33824;SDS011;20127;48.962;8.342;2023-08-06T11:24:04;5.63;;;2.90;;
33824;SDS011;20127;48.962;8.342;2023-08-06T11:27:10;6.95;;;3.35;;
33824;SDS011;20127;48.962;8.342;2023-08-06T11:30:14;6.78;;;3.13;;
33824;SDS011;20127;48.962;8.342;2023-08-06T11:33:20;3.80;;;2.47;;
33824;SDS011;20127;48.962;8.342;2023-08-06T11:36:28;3.60;;;2.70;;
33824;SDS011;20127;48.962;8.342;2023-08-06T11:39:31;3.05;;;1.88;;
33824;SDS011;20127;48.962;8.342;2023-08-06T11:42:33;3.30;;;2.53;;
33824;SDS011;20127;48.962;8.342;2023-08-06T11:45:44;4.63;;;2.30;;
33824;SDS011;20127;48.962;8.342;2023-08-06T11:48:52;5.10;;;2.17;;
33824;SDS011;20127;48.962;8.342;2023-08-06T11:55:33;3.60;;;1.63;;
33824;SDS011;20127;48.962;8.342;2023-08-06T11:58:42;2.75;;;1.50;;
33824;SDS011;20127;48.962;8.342;2023-08-06T12:01:53;4.07;;;2.03;;
33824;SDS011;20127;48.962;8.342;2023-08-06T12:05:03;4.60;;;1.77;;
33824;SDS011;20127;48.962;8.342;2023-08-06T12:08:15;3.40;;;1.70;;
33824;SDS011;20127;48.962;8.342;2023-08-06T12:11:21;3.60;;;1.83;;
33824;SDS011;20127;48.962;8.342;2023-08-06T12:14:27;2.90;;;2.13;;
33824;SDS011;20127;48.962;8.342;2023-08-06T12:17:36;2.53;;;1.70;;
33824;SDS011;20127;48.962;8.342;2023-08-06T12:23:59;3.58;;;1.40;;
33824;SDS011;20127;48.962;8.342;2023-08-06T12:27:03;4.15;;;2.20;;
33824;SDS011;20127;48.962;8.342;2023-08-06T12:30:22;3.13;;;1.25;;
33824;SDS011;20127;48.962;8.342;2023-08-06T12:33:25;3.97;;;1.58;;
33824;SDS011;20127;48.962;8.342;2023-08-06T12:36:28;2.33;;;1.60;;
33824;SDS011;20127;48.962;8.342;2023-08-06T12:39:30;4.05;;;1.60;;
33824;SDS011;20127;48.962;8.342;2023-08-06T12:42:32;2.33;;;1.23;;
33824;SDS011;20127;48.962;8.342;2023-08-06T12:45:34;2.13;;;1.38;;
33824;SDS011;20127;48.962;8.342;2023-08-06T12:48:36;1.42;;;1.20;;
33824;SDS011;20127;48.962;8.342;2023-08-06T12:51:39;1.58;;;1.20;;
33824;SDS011;20127;48.962;8.342;2023-08-06T12:54:41;3.70;;;1.25;;
33824;SDS011;20127;48.962;8.342;2023-08-06T12:57:43;4.10;;;2.75;;
33824;SDS011;20127;48.962;8.342;2023-08-06T13:00:45;3.08;;;1.52;;
33824;SDS011;20127;48.962;8.342;2023-08-06T13:03:47;0.98;;;0.93;;
33824;SDS011;20127;48.962;8.342;2023-08-06T13:06:50;1.52;;;0.80;;
33824;SDS011;20127;48.962;8.342;2023-08-06T13:09:52;3.50;;;1.63;;
33824;SDS011;20127;48.962;8.342;2023-08-06T13:12:55;1.33;;;0.68;;
33824;SDS011;20127;48.962;8.342;2023-08-06T13:16:03;0.63;;;0.60;;
33824;SDS011;20127;48.962;8.342;2023-08-06T13:19:07;2.38;;;0.60;;
33824;SDS011;20127;48.962;8.342;2023-08-06T13:22:32;0.93;;;0.70;;
33824;SDS011;20127;48.962;8.342;2023-08-06T13:25:34;2.35;;;0.70;;
33824;SDS011;20127;48.962;8.342;2023-08-06T13:28:39;0.70;;;0.70;;
33824;SDS011;20127;48.962;8.342;2023-08-06T13:31:44;0.82;;;0.82;;
33824;SDS011;20127;48.962;8.342;2023-08-06T13:34:49;1.13;;;0.82;;
33824;SDS011;20127;48.962;8.342;2023-08-06T13:37:53;1.80;;;0.73;;
33824;SDS011;20127;48.962;8.342;2023-08-06T13:40:58;1.05;;;0.80;;
33824;SDS011;20127;48.962;8.342;2023-08-06T13:44:00;0.75;;;0.65;;
33824;SDS011;20127;48.962;8.342;2023-08-06T13:47:02;1.25;;;0.95;;
33824;SDS011;20127;48.962;8.342;2023-08-06T13:50:05;0.88;;;0.82;;
33824;SDS011;20127;48.962;8.342;2023-08-06T13:53:09;0.80;;;0.70;;
33824;SDS011;20127;48.962;8.342;2023-08-06T13:56:14;3.28;;;0.75;;
33824;SDS011;20127;48.962;8.342;2023-08-06T13:59:17;2.80;;;0.70;;
33824;SDS011;20127;48.962;8.342;2023-08-06T14:02:20;0.80;;;0.77;;
33824;SDS011;20127;48.962;8.342;2023-08-06T14:05:25;1.85;;;0.85;;
33824;SDS011;20127;48.962;8.342;2023-08-06T14:08:29;1.88;;;1.00;;
33824;SDS011;20127;48.962;8.342;2023-08-06T14:11:31;2.97;;;0.80;;
33824;SDS011;20127;48.962;8.342;2023-08-06T14:14:34;1.90;;;0.68;;
33824;SDS011;20127;48.962;8.342;2023-08-06T14:17:35;0.50;;;0.47;;
33824;SDS011;20127;48.962;8.342;2023-08-06T14:20:37;1.38;;;1.27;;
33824;SDS011;20127;48.962;8.342;2023-08-06T14:23:41;3.10;;;1.05;;
33824;SDS011;20127;48.962;8.342;2023-08-06T14:26:42;1.27;;;0.73;;
33824;SDS011;20127;48.962;8.342;2023-08-06T14:29:44;0.75;;;0.60;;
33824;SDS011;20127;48.962;8.342;2023-08-06T14:32:46;2.47;;;0.70;;
33824;SDS011;20127;48.962;8.342;2023-08-06T14:35:48;0.70;;;0.70;;
33824;SDS011;20127;48.962;8.342;2023-08-06T14:38:51;0.77;;;0.77;;
33824;SDS011;20127;48.962;8.342;2023-08-06T14:41:53;2.47;;;0.98;;
33824;SDS011;20127;48.962;8.342;2023-08-06T14:44:55;2.38;;;0.95;;
33824;SDS011;20127;48.962;8.342;2023-08-06T14:47:56;2.33;;;1.00;;
33824;SDS011;20127;48.962;8.342;2023-08-06T14:50:58;3.42;;;0.73;;
33824;SDS011;20127;48.962;8.342;2023-08-06T14:54:02;3.00;;;0.80;;
33824;SDS011;20127;48.962;8.342;2023-08-06T14:57:04;0.45;;;0.45;;
33824;SDS011;20127;48.962;8.342;2023-08-06T15:00:07;1.95;;;1.05;;
33824;SDS011;20127;48.962;8.342;2023-08-06T15:03:10;0.68;;;0.63;;
33824;SDS011;20127;48.962;8.342;2023-08-06T15:06:12;5.45;;;0.70;;
33824;SDS011;20127;48.962;8.342;2023-08-06T15:09:15;1.67;;;0.98;;
33824;SDS011;20127;48.962;8.342;2023-08-06T15:12:17;2.25;;;0.80;;
33824;SDS011;20127;48.962;8.342;2023-08-06T15:15:20;4.18;;;1.40;;
33824;SDS011;20127;48.962;8.342;2023-08-06T15:18:23;0.80;;;0.70;;
33824;SDS011;20127;48.962;8.342;2023-08-06T15:21:24;0.98;;;0.68;;
33824;SDS011;20127;48.962;8.342;2023-08-06T15:24:27;2.50;;;1.33;;
33824;SDS011;20127;48.962;8.342;2023-08-06T15:27:29;2.88;;;0.60;;
33824;SDS011;20127;48.962;8.342;2023-08-06T15:30:32;1.50;;;0.98;;
33824;SDS011;20127;48.962;8.342;2023-08-06T15:33:34;1.10;;;0.82;;
33824;SDS011;20127;48.962;8.342;2023-08-06T15:36:36;3.20;;;1.17;;
33824;SDS011;20127;48.962;8.342;2023-08-06T15:39:39;2.05;;;0.82;;
33824;SDS011;20127;48.962;8.342;2023-08-06T15:42:41;3.60;;;0.98;;
33824;SDS011;20127;48.962;8.342;2023-08-06T15:45:43;0.68;;;0.60;;
33824;SDS011;20127;48.962;8.342;2023-08-06T15:48:44;1.40;;;0.75;;
33824;SDS011;20127;48.962;8.342;2023-08-06T15:51:46;3.55;;;0.95;;
33824;SDS011;20127;48.962;8.342;2023-08-06T15:54:49;1.02;;;0.80;;
33824;SDS011;20127;48.962;8.342;2023-08-06T15:57:51;2.25;;;1.00;;
33824;SDS011;20127;48.962;8.342;2023-08-06T16:00:53;1.13;;;1.00;;
33824;SDS011;20127;48.962;8.342;2023-08-06T16:03:54;6.15;;;4.47;;
33824;SDS011;20127;48.962;8.342;2023-08-06T16:06:56;13.70;;;6.97;;
33824;SDS011;20127;48.962;8.342;2023-08-06T16:10:00;2.47;;;2.20;;
33824;SDS011;20127;48.962;8.342;2023-08-06T16:13:02;9.95;;;8.95;;
33824;SDS011;20127;48.962;8.342;2023-08-06T16:16:04;4.80;;;2.35;;
33824;SDS011;20127;48.962;8.342;2023-08-06T16:19:05;10.45;;;9.25;;
33824;SDS011;20127;48.962;8.342;2023-08-06T16:22:07;21.92;;;19.00;;
33824;SDS011;20127;48.962;8.342;2023-08-06T16:25:12;6.80;;;5.40;;
33824;SDS011;20127;48.962;8.342;2023-08-06T16:28:14;15.43;;;13.80;;
33824;SDS011;20127;48.962;8.342;2023-08-06T16:31:17;30.52;;;27.42;;
33824;SDS011;20127;48.962;8.342;2023-08-06T16:34:19;21.00;;;18.83;;
33824;SDS011;20127;48.962;8.342;2023-08-06T16:37:21;16.80;;;15.18;;
33824;SDS011;20127;48.962;8.342;2023-08-06T16:40:24;46.65;;;42.00;;
33824;SDS011;20127;48.962;8.342;2023-08-06T16:43:26;21.05;;;19.08;;
33824;SDS011;20127;48.962;8.342;2023-08-06T16:46:28;24.52;;;18.45;;
33824;SDS011;20127;48.962;8.342;2023-08-06T16:49:29;3.15;;;2.85;;
33824;SDS011;20127;48.962;8.342;2023-08-06T16:52:31;12.93;;;11.60;;
33824;SDS011;20127;48.962;8.342;2023-08-06T16:55:34;3.20;;;2.08;;
33824;SDS011;20127;48.962;8.342;2023-08-06T16:58:36;3.83;;;1.98;;
33824;SDS011;20127;48.962;8.342;2023-08-06T17:01:38;15.50;;;12.68;;
33824;SDS011;20127;48.962;8.342;2023-08-06T17:04:40;8.88;;;6.90;;
33824;SDS011;20127;48.962;8.342;2023-08-06T17:07:41;3.30;;;2.13;;
33824;SDS011;20127;48.962;8.342;2023-08-06T17:10:45;3.65;;;1.98;;
33824;SDS011;20127;48.962;8.342;2023-08-06T17:13:47;2.53;;;2.15;;
33824;SDS011;20127;48.962;8.342;2023-08-06T17:16:49;7.00;;;5.47;;
33824;SDS011;20127;48.962;8.342;2023-08-06T17:19:50;7.35;;;5.32;;
33824;SDS011;20127;48.962;8.342;2023-08-06T17:22:52;2.42;;;1.80;;
33824;SDS011;20127;48.962;8.342;2023-08-06T17:25:55;3.50;;;2.70;;
33824;SDS011;20127;48.962;8.342;2023-08-06T17:28:57;3.22;;;1.33;;
33824;SDS011;20127;48.962;8.342;2023-08-06T17:31:58;3.88;;;2.75;;
33824;SDS011;20127;48.962;8.342;2023-08-06T17:35:00;4.00;;;2.08;;
33824;SDS011;20127;48.962;8.342;2023-08-06T17:38:02;3.53;;;1.52;;
33824;SDS011;20127;48.962;8.342;2023-08-06T17:41:05;2.47;;;1.40;;
33824;SDS011;20127;48.962;8.342;2023-08-06T17:44:07;4.65;;;1.45;;
33824;SDS011;20127;48.962;8.342;2023-08-06T17:47:09;2.67;;;2.20;;
33824;SDS011;20127;48.962;8.342;2023-08-06T17:50:11;1.50;;;1.30;;
33824;SDS011;20127;48.962;8.342;2023-08-06T17:53:12;4.40;;;1.90;;
33824;SDS011;20127;48.962;8.342;2023-08-06T17:56:15;4.30;;;2.13;;
33824;SDS011;20127;48.962;8.342;2023-08-06T17:59:17;2.67;;;1.83;;
33824;SDS011;20127;48.962;8.342;2023-08-06T18:02:19;2.58;;;1.88;;
33824;SDS011;20127;48.962;8.342;2023-08-06T18:05:21;2.50;;;2.30;;
33824;SDS011;20127;48.962;8.342;2023-08-06T18:08:23;2.92;;;1.10;;
33824;SDS011;20127;48.962;8.342;2023-08-06T18:11:26;3.72;;;1.70;;
33824;SDS011;20127;48.962;8.342;2023-08-06T18:14:28;1.85;;;1.63;;
33824;SDS011;20127;48.962;8.342;2023-08-06T18:17:29;4.38;;;1.60;;
33824;SDS011;20127;48.962;8.342;2023-08-06T18:20:31;3.38;;;1.50;;
33824;SDS011;20127;48.962;8.342;2023-08-06T18:23:33;2.75;;;1.48;;
33824;SDS011;20127;48.962;8.342;2023-08-06T18:26:36;4.28;;;1.73;;
33824;SDS011;20127;48.962;8.342;2023-08-06T18:29:37;4.22;;;2.25;;
33824;SDS011;20127;48.962;8.342;2023-08-06T18:32:39;5.63;;;1.70;;
33824;SDS011;20127;48.962;8.342;2023-08-06T18:35:41;3.50;;;2.40;;
33824;SDS011;20127;48.962;8.342;2023-08-06T18:38:43;9.35;;;3.88;;
33824;SDS011;20127;48.962;8.342;2023-08-06T18:41:50;3.35;;;1.40;;
33824;SDS011;20127;48.962;8.342;2023-08-06T18:44:52;6.07;;;3.53;;